Aviation Digital Data Service (ADDS)

Output produced by TAFs form (0750 UTC 25 March 2017)
found at http://www.aviationweather.gov/adds/tafs/
 
METAR text: KMCO 250653Z 07005KT 10SM SCT250 17/13 A3024 RMK AO2 SLP238 T01670128
Conditions at: KMCO (ORLANDO , FL, US) observed 0653 UTC 25 March 2017
Temperature: 16.7°C (62°F)
Dewpoint: 12.8°C (55°F) [RH = 78%]
Pressure (altimeter): 30.24 inches Hg (1024.1 mb)
[Sea-level pressure: 1023.8 mb]
Winds: from the ENE (70 degrees) at 6 MPH (5 knots; 2.6 m/s)
Visibility: 10 or more miles (16+ km)
Ceiling: at least 12,000 feet AGL
Clouds: scattered clouds at 25000 feet AGL
Weather: no significant weather observed at this time

Forecast for: KMCO (ORLANDO , FL, US)
Text: KMCO 250601Z 2506/2606 07007KT P6SM FEW040 SCT070
Forecast period: 0600 to 1500 UTC 25 March 2017
Forecast type: FROM: standard forecast or significant change
Winds: from the ENE (70 degrees) at 8 MPH (7 knots; 3.6 m/s)
Visibility: 6 or more miles (10+ km)
Clouds: few clouds at 4000 feet AGL
scattered clouds at 7000 feet AGL
Weather: no significant weather forecast for this period
Text: FM251500 11012KT P6SM SCT040
Forecast period: 1500 UTC 25 March 2017 to 0600 UTC 26 March 2017
Forecast type: FROM: standard forecast or significant change
Winds: from the ESE (110 degrees) at 14 MPH (12 knots; 6.2 m/s)
Visibility: 6 or more miles (10+ km)
Clouds: scattered clouds at 4000 feet AGL
Weather: no significant weather forecast for this period